createdAt,value
2018-07-24T00:00:34.765Z,3.08
2018-07-24T00:03:03.911Z,3.30
2018-07-24T00:05:32.839Z,3.30
2018-07-24T00:08:02.315Z,3.00
2018-07-24T00:10:32.133Z,2.90
2018-07-24T00:13:00.964Z,3.30
2018-07-24T00:15:30.303Z,3.13
2018-07-24T00:17:59.295Z,3.30
2018-07-24T00:20:28.528Z,2.97
2018-07-24T00:22:57.536Z,3.47
2018-07-24T00:25:26.535Z,3.20
2018-07-24T00:27:55.972Z,3.20
2018-07-24T00:30:24.795Z,3.20
2018-07-24T00:32:53.476Z,3.62
2018-07-24T00:35:22.447Z,3.60
2018-07-24T00:37:51.389Z,3.23
2018-07-24T00:40:20.795Z,3.20
2018-07-24T00:42:49.996Z,3.53
2018-07-24T00:45:19.036Z,3.30
2018-07-24T00:47:48.295Z,3.53
2018-07-24T00:50:17.522Z,3.50
2018-07-24T00:52:46.423Z,3.35
2018-07-24T00:55:15.475Z,3.42
2018-07-24T00:57:44.175Z,3.63
2018-07-24T01:00:13.048Z,3.90
2018-07-24T01:02:42.022Z,3.20
2018-07-24T01:05:11.091Z,3.60
2018-07-24T01:07:40.216Z,3.67
2018-07-24T01:10:10.316Z,3.87
2018-07-24T01:12:39.732Z,3.40
2018-07-24T01:15:09.086Z,3.73
2018-07-24T01:17:39.135Z,3.42
2018-07-24T01:20:08.463Z,3.43
2018-07-24T01:22:39.117Z,3.50
2018-07-24T01:25:08.255Z,3.50
2018-07-24T01:27:36.951Z,4.57
2018-07-24T01:30:06.139Z,3.47
2018-07-24T01:32:35.208Z,3.60
2018-07-24T01:35:05.460Z,3.50
2018-07-24T01:37:34.347Z,3.67
2018-07-24T01:40:03.631Z,3.60
2018-07-24T01:42:32.321Z,3.53
2018-07-24T01:45:01.327Z,3.57
2018-07-24T01:47:30.368Z,3.70
2018-07-24T01:49:59.152Z,3.50
2018-07-24T01:52:28.163Z,3.60
2018-07-24T01:54:56.752Z,3.73
2018-07-24T01:57:25.529Z,3.53
2018-07-24T01:59:55.007Z,3.20
2018-07-24T02:02:23.871Z,3.50
2018-07-24T02:04:53.662Z,4.00
2018-07-24T02:07:22.595Z,3.60
2018-07-24T02:09:52.391Z,3.67
2018-07-24T02:12:21.607Z,3.40
2018-07-24T02:14:51.676Z,3.90
2018-07-24T02:17:20.673Z,3.70
2018-07-24T02:19:50.012Z,4.00
2018-07-24T02:22:18.996Z,3.87
2018-07-24T02:24:48.368Z,3.80
2018-07-24T02:27:17.621Z,4.23
2018-07-24T02:29:47.558Z,4.47
2018-07-24T02:32:16.555Z,3.80
2018-07-24T02:34:45.566Z,4.03
2018-07-24T02:37:14.516Z,3.37
2018-07-24T02:39:43.766Z,4.10
2018-07-24T02:42:13.152Z,3.80
2018-07-24T02:44:42.188Z,3.70
2018-07-24T02:47:11.303Z,4.20
2018-07-24T02:49:40.765Z,3.60
2018-07-24T02:52:09.765Z,3.73
2018-07-24T02:54:38.859Z,3.73
2018-07-24T02:57:07.827Z,4.00
2018-07-24T02:59:36.878Z,3.63
2018-07-24T03:02:06.677Z,3.73
2018-07-24T03:04:36.024Z,3.93
2018-07-24T03:07:05.483Z,3.77
2018-07-24T03:09:34.705Z,3.77
2018-07-24T03:12:03.722Z,3.47
2018-07-24T03:14:32.371Z,4.10
2018-07-24T03:17:02.094Z,3.80
2018-07-24T03:19:31.521Z,3.70
2018-07-24T03:22:00.315Z,3.83
2018-07-24T03:24:29.960Z,4.37
2018-07-24T03:26:59.555Z,4.07
2018-07-24T03:29:28.933Z,4.50
2018-07-24T03:31:57.784Z,3.77
2018-07-24T03:34:27.636Z,4.40
2018-07-24T03:36:56.971Z,3.73
2018-07-24T03:39:25.398Z,3.90
2018-07-24T03:41:54.047Z,4.37
2018-07-24T03:44:23.115Z,4.33
2018-07-24T03:46:51.739Z,4.60
2018-07-24T03:49:20.512Z,4.17
2018-07-24T03:51:49.141Z,3.83
2018-07-24T03:54:18.060Z,4.43
2018-07-24T03:56:47.231Z,4.37
2018-07-24T03:59:16.236Z,4.40
2018-07-24T04:01:45.582Z,5.10
2018-07-24T04:04:14.804Z,4.20
2018-07-24T04:06:43.382Z,4.50
2018-07-24T04:09:12.872Z,4.37
2018-07-24T04:11:42.129Z,4.57
2018-07-24T04:14:11.304Z,4.00
2018-07-24T04:16:40.420Z,4.10
2018-07-24T04:19:11.007Z,3.57
2018-07-24T04:21:40.832Z,3.90
2018-07-24T04:24:09.957Z,4.10
2018-07-24T04:26:39.362Z,3.90
2018-07-24T04:29:09.682Z,4.03
2018-07-24T04:31:38.684Z,3.87
2018-07-24T04:34:07.673Z,3.50
2018-07-24T04:36:36.700Z,3.47
2018-07-24T04:39:07.528Z,3.73
2018-07-24T04:41:36.924Z,3.13
2018-07-24T04:44:05.683Z,3.40
2018-07-24T04:46:34.636Z,3.73
2018-07-24T04:49:03.891Z,3.30
2018-07-24T04:51:32.667Z,2.93
2018-07-24T04:54:02.075Z,2.73
2018-07-24T04:56:31.011Z,3.20
2018-07-24T04:59:00.064Z,3.07
2018-07-24T05:01:29.292Z,2.67
2018-07-24T05:03:58.417Z,2.70
2018-07-24T05:06:27.796Z,2.60
2018-07-24T05:08:56.399Z,2.60
2018-07-24T05:11:25.488Z,2.73
2018-07-24T05:13:54.721Z,2.63
2018-07-24T05:16:23.752Z,2.55
2018-07-24T05:18:53.100Z,2.40
2018-07-24T05:21:22.107Z,2.53
2018-07-24T05:23:51.172Z,2.57
2018-07-24T05:26:20.188Z,2.67
2018-07-24T05:28:49.179Z,2.60
2018-07-24T05:31:18.389Z,2.37
2018-07-24T05:33:47.955Z,2.70
2018-07-24T05:36:17.135Z,2.30
2018-07-24T05:38:47.076Z,2.25
2018-07-24T05:41:16.044Z,1.93
2018-07-24T05:43:45.180Z,2.10
2018-07-24T05:46:13.863Z,2.33
2018-07-24T05:48:42.648Z,2.45
2018-07-24T05:51:11.587Z,2.40
2018-07-24T05:53:42.143Z,2.12
2018-07-24T05:56:10.958Z,2.30
2018-07-24T05:58:39.803Z,2.63
2018-07-24T06:01:08.875Z,2.50
2018-07-24T06:03:37.880Z,2.65
2018-07-24T06:06:06.652Z,2.33
2018-07-24T06:08:35.552Z,2.17
2018-07-24T06:11:04.597Z,2.20
2018-07-24T06:13:34.104Z,2.47
2018-07-24T06:16:03.289Z,2.27
2018-07-24T06:18:32.228Z,2.62
2018-07-24T06:21:05.167Z,2.50
2018-07-24T06:23:34.462Z,2.33
2018-07-24T06:26:03.560Z,2.52
2018-07-24T06:28:32.591Z,2.60
2018-07-24T06:31:02.116Z,2.40
2018-07-24T06:33:31.816Z,2.40
2018-07-24T06:36:00.915Z,2.62
2018-07-24T06:38:29.937Z,2.30
2018-07-24T06:40:59.408Z,2.35
2018-07-24T06:43:28.388Z,2.10
2018-07-24T06:45:58.328Z,2.15
2018-07-24T06:48:27.548Z,2.20
2018-07-24T06:50:56.484Z,2.47
2018-07-24T06:53:25.769Z,2.37
2018-07-24T06:55:54.819Z,2.45
2018-07-24T06:58:23.775Z,2.55
2018-07-24T07:00:53.109Z,2.50
2018-07-24T07:03:21.986Z,2.72
2018-07-24T07:05:51.380Z,2.30
2018-07-24T07:08:20.527Z,2.00
2018-07-24T07:10:49.311Z,2.22
2018-07-24T07:13:18.965Z,2.37
2018-07-24T07:15:47.851Z,2.62
2018-07-24T07:18:16.777Z,2.17
2018-07-24T07:20:45.858Z,2.58
2018-07-24T07:23:14.794Z,2.20
2018-07-24T07:25:43.778Z,2.30
2018-07-24T07:28:13.097Z,2.37
2018-07-24T07:30:41.441Z,2.50
2018-07-24T07:33:10.547Z,2.52
2018-07-24T07:35:40.078Z,2.30
2018-07-24T07:38:09.467Z,2.65
2018-07-24T07:40:38.766Z,2.35
2018-07-24T07:43:08.020Z,2.47
2018-07-24T07:45:37.248Z,2.37
2018-07-24T07:48:07.062Z,2.50
2018-07-24T07:50:36.203Z,2.35
2018-07-24T07:53:05.040Z,2.40
2018-07-24T07:55:34.074Z,2.30
2018-07-24T07:58:03.360Z,2.42
2018-07-24T08:00:32.364Z,2.25
2018-07-24T08:03:01.265Z,2.17
2018-07-24T08:05:31.300Z,2.17
2018-07-24T08:08:00.948Z,2.52
2018-07-24T08:10:29.639Z,2.55
2018-07-24T08:12:58.460Z,2.58
2018-07-24T08:15:27.207Z,2.55
2018-07-24T08:17:55.771Z,2.30
2018-07-24T08:20:24.766Z,2.70
2018-07-24T08:22:53.795Z,2.52
2018-07-24T08:25:23.271Z,2.15
2018-07-24T08:27:52.812Z,2.45
2018-07-24T08:30:22.414Z,2.72
2018-07-24T08:32:51.883Z,2.70
2018-07-24T08:35:20.810Z,2.42
2018-07-24T08:37:49.988Z,2.30
2018-07-24T08:40:19.380Z,2.42
2018-07-24T08:42:48.381Z,2.70
2018-07-24T08:45:17.377Z,2.55
2018-07-24T08:47:46.719Z,2.77
2018-07-24T08:50:15.928Z,2.40
2018-07-24T08:52:45.183Z,2.50
2018-07-24T08:55:14.206Z,2.55
2018-07-24T08:57:43.020Z,2.87
2018-07-24T09:00:11.872Z,2.52
2018-07-24T09:02:40.971Z,2.65
2018-07-24T09:05:09.588Z,2.70
2018-07-24T09:07:38.516Z,3.37
2018-07-24T09:10:08.310Z,2.77
2018-07-24T09:12:37.267Z,2.42
2018-07-24T09:15:06.136Z,2.60
2018-07-24T09:17:35.676Z,2.85
2018-07-24T09:20:04.832Z,2.47
2018-07-24T09:22:33.998Z,2.33
2018-07-24T09:25:02.999Z,2.47
2018-07-24T09:27:32.739Z,2.85
2018-07-24T09:30:01.416Z,2.90
2018-07-24T09:32:30.571Z,3.05
2018-07-24T09:34:59.781Z,3.05
2018-07-24T09:37:28.588Z,2.33
2018-07-24T09:39:57.782Z,2.90
2018-07-24T09:42:26.360Z,2.70
2018-07-24T09:44:54.951Z,2.52
2018-07-24T09:47:24.924Z,3.02
2018-07-24T09:49:54.375Z,2.47
2018-07-24T09:52:24.342Z,2.90
2018-07-24T09:54:53.096Z,2.72
2018-07-24T09:57:22.500Z,2.70
2018-07-24T09:59:51.593Z,2.62
2018-07-24T10:02:20.624Z,2.87
2018-07-24T10:04:49.360Z,2.70
2018-07-24T10:07:18.439Z,2.55
2018-07-24T10:09:47.948Z,2.60
2018-07-24T10:12:16.675Z,2.58
2018-07-24T10:14:45.731Z,3.00
2018-07-24T10:17:14.708Z,2.85
2018-07-24T10:19:44.088Z,2.70
2018-07-24T10:22:13.220Z,2.58
2018-07-24T10:24:42.144Z,2.52
2018-07-24T10:27:11.272Z,3.08
2018-07-24T10:29:40.556Z,2.62
2018-07-24T10:32:09.779Z,2.90
2018-07-24T10:34:38.463Z,2.72
2018-07-24T10:37:07.284Z,2.80
2018-07-24T10:39:36.655Z,2.60
2018-07-24T10:42:05.979Z,2.70
2018-07-24T10:44:34.825Z,2.35
2018-07-24T10:47:03.698Z,2.27
2018-07-24T10:49:32.836Z,2.98
2018-07-24T10:52:02.768Z,2.92
2018-07-24T10:54:31.701Z,2.90
2018-07-24T10:57:00.373Z,2.70
2018-07-24T10:59:28.992Z,2.98
2018-07-24T11:01:57.912Z,2.70
2018-07-24T11:04:27.102Z,2.95
2018-07-24T11:06:56.468Z,2.92
2018-07-24T11:09:25.319Z,2.50
2018-07-24T11:11:53.964Z,2.60
2018-07-24T11:14:22.629Z,3.02
2018-07-24T11:16:51.851Z,2.80
2018-07-24T11:19:20.552Z,2.62
2018-07-24T11:21:49.469Z,2.50
2018-07-24T11:24:18.092Z,2.60
2018-07-24T11:26:47.871Z,2.85
2018-07-24T11:29:17.268Z,2.45
2018-07-24T11:31:46.268Z,2.75
2018-07-24T11:34:15.169Z,2.47
2018-07-24T11:36:43.860Z,2.60
2018-07-24T11:39:16.742Z,2.60
2018-07-24T11:41:46.020Z,3.30
2018-07-24T11:44:14.720Z,2.55
2018-07-24T11:46:43.978Z,2.58
2018-07-24T11:49:13.236Z,2.70
2018-07-24T11:51:42.062Z,2.62
2018-07-24T11:54:11.364Z,2.95
2018-07-24T11:56:41.028Z,2.70
2018-07-24T11:59:10.220Z,2.60
2018-07-24T12:01:39.462Z,2.62
2018-07-24T12:04:08.631Z,2.77
2018-07-24T12:06:37.424Z,2.75
2018-07-24T12:09:08.672Z,2.70
2018-07-24T12:11:37.528Z,2.80
2018-07-24T12:14:06.976Z,2.50
2018-07-24T12:16:35.982Z,2.80
2018-07-24T12:19:05.032Z,3.00
2018-07-24T12:21:33.849Z,2.17
2018-07-24T12:24:03.236Z,2.60
2018-07-24T12:26:32.547Z,2.58
2018-07-24T12:29:02.424Z,2.50
2018-07-24T12:31:31.211Z,2.55
2018-07-24T12:34:00.124Z,2.80
2018-07-24T12:36:29.288Z,2.62
2018-07-24T12:38:58.079Z,2.50
2018-07-24T12:41:27.079Z,2.92
2018-07-24T12:43:56.719Z,2.98
2018-07-24T12:46:30.904Z,2.50
2018-07-24T12:49:00.396Z,2.65
2018-07-24T12:51:30.036Z,3.60
2018-07-24T12:53:59.236Z,2.55
2018-07-24T12:56:28.328Z,2.40
2018-07-24T12:58:57.745Z,2.37
2018-07-24T13:01:27.344Z,3.00
2018-07-24T13:03:56.380Z,2.70
2018-07-24T13:06:25.870Z,2.67
2018-07-24T13:08:55.108Z,2.40
2018-07-24T13:11:24.408Z,2.65
2018-07-24T13:13:53.764Z,2.83
2018-07-24T13:16:22.480Z,2.42
2018-07-24T13:18:51.391Z,2.77
2018-07-24T13:21:20.548Z,2.70
2018-07-24T13:23:50.034Z,2.50
2018-07-24T13:26:19.123Z,2.30
2018-07-24T13:28:47.985Z,2.58
2018-07-24T13:31:17.239Z,2.25
2018-07-24T13:33:46.073Z,2.47
2018-07-24T13:36:15.535Z,2.42
2018-07-24T13:38:44.805Z,2.35
2018-07-24T13:41:13.882Z,2.37
2018-07-24T13:43:43.194Z,2.25
2018-07-24T13:46:12.287Z,2.50
2018-07-24T13:48:41.372Z,2.05
2018-07-24T13:51:10.919Z,2.67
2018-07-24T13:53:40.483Z,2.52
2018-07-24T13:56:09.628Z,2.45
2018-07-24T13:58:38.135Z,2.55
2018-07-24T14:01:06.827Z,2.70
2018-07-24T14:03:35.372Z,2.75
2018-07-24T14:06:04.346Z,2.35
2018-07-24T14:08:33.458Z,2.80
2018-07-24T14:11:02.357Z,2.85
2018-07-24T14:13:31.292Z,2.50
2018-07-24T14:16:00.357Z,2.55
2018-07-24T14:18:28.777Z,2.42
2018-07-24T14:20:58.099Z,2.40
2018-07-24T14:23:27.045Z,2.30
2018-07-24T14:25:56.604Z,2.65
2018-07-24T14:28:25.373Z,2.60
2018-07-24T14:30:54.991Z,2.60
2018-07-24T14:33:24.250Z,2.30
2018-07-24T14:35:52.953Z,2.40
2018-07-24T14:38:22.766Z,2.60
2018-07-24T14:40:51.714Z,2.37
2018-07-24T14:43:20.941Z,2.50
2018-07-24T14:45:50.061Z,2.52
2018-07-24T14:48:19.354Z,2.72
2018-07-24T14:50:48.756Z,3.02
2018-07-24T14:53:18.186Z,2.67
2018-07-24T14:55:46.588Z,2.58
2018-07-24T14:58:15.612Z,2.75
2018-07-24T15:00:44.464Z,2.70
2018-07-24T15:03:13.384Z,2.67
2018-07-24T15:05:42.200Z,2.60
2018-07-24T15:08:11.000Z,2.98
2018-07-24T15:10:39.948Z,2.87
2018-07-24T15:13:09.292Z,3.00
2018-07-24T15:15:38.675Z,2.72
2018-07-24T15:18:07.948Z,2.83
2018-07-24T15:20:37.200Z,2.80
2018-07-24T15:23:06.344Z,2.75
2018-07-24T15:25:35.024Z,2.75
2018-07-24T15:28:03.944Z,2.50
2018-07-24T15:30:32.932Z,2.92
2018-07-24T15:33:02.656Z,2.75
2018-07-24T15:35:31.495Z,3.35
2018-07-24T15:38:00.220Z,2.67
2018-07-24T15:40:29.528Z,2.90
2018-07-24T15:42:58.371Z,2.60
2018-07-24T15:45:27.645Z,2.90
2018-07-24T15:47:56.415Z,2.45
2018-07-24T15:50:25.735Z,2.85
2018-07-24T15:52:59.962Z,2.70
2018-07-24T15:55:28.851Z,2.60
2018-07-24T15:57:58.405Z,2.50
2018-07-24T16:00:28.436Z,2.72
2018-07-24T16:02:58.020Z,2.65
2018-07-24T16:05:27.033Z,2.92
2018-07-24T16:07:56.354Z,3.87
2018-07-24T16:10:25.304Z,2.90
2018-07-24T16:12:54.171Z,3.08
2018-07-24T16:15:23.205Z,2.70
2018-07-24T16:17:52.260Z,2.60
2018-07-24T16:20:21.208Z,2.85
2018-07-24T16:22:50.404Z,2.67
2018-07-24T16:25:20.176Z,2.70
2018-07-24T16:27:49.094Z,2.62
2018-07-24T16:30:18.490Z,2.72
2018-07-24T16:32:47.283Z,2.45
2018-07-24T16:35:16.575Z,3.00
2018-07-24T16:37:45.928Z,2.60
2018-07-24T16:40:14.904Z,2.40
2018-07-24T16:42:47.364Z,2.22
2018-07-24T16:45:16.688Z,2.72
2018-07-24T16:47:46.110Z,2.62
2018-07-24T16:50:17.055Z,2.67
2018-07-24T16:52:46.617Z,2.40
2018-07-24T16:55:15.212Z,2.70
2018-07-24T16:57:44.449Z,2.67
2018-07-24T17:00:13.328Z,2.40
2018-07-24T17:02:42.329Z,2.33
2018-07-24T17:05:12.432Z,2.50
2018-07-24T17:07:42.823Z,2.60
2018-07-24T17:10:11.620Z,2.10
2018-07-24T17:12:40.872Z,2.65
2018-07-24T17:15:09.858Z,2.40
2018-07-24T17:17:39.231Z,2.27
2018-07-24T17:20:08.415Z,2.50
2018-07-24T17:22:37.800Z,2.27
2018-07-24T17:25:06.904Z,2.35
2018-07-24T17:27:36.432Z,2.50
2018-07-24T17:30:05.783Z,2.42
2018-07-24T17:32:34.535Z,2.47
2018-07-24T17:35:03.571Z,2.50
2018-07-24T17:37:32.685Z,2.47
2018-07-24T17:40:01.533Z,2.40
2018-07-24T17:42:30.378Z,2.10
2018-07-24T17:44:59.656Z,2.55
2018-07-24T17:47:28.779Z,2.05
2018-07-24T17:49:57.628Z,2.55
2018-07-24T17:52:26.869Z,2.80
2018-07-24T17:54:56.310Z,2.40
2018-07-24T17:57:25.472Z,2.50
2018-07-24T17:59:54.853Z,2.33
2018-07-24T18:02:24.094Z,2.30
2018-07-24T18:04:52.988Z,2.10
2018-07-24T18:07:21.653Z,2.83
2018-07-24T18:09:50.703Z,2.50
2018-07-24T18:12:19.952Z,2.55
2018-07-24T18:14:49.003Z,2.22
2018-07-24T18:17:18.231Z,2.22
2018-07-24T18:19:47.460Z,2.83
2018-07-24T18:22:15.899Z,2.40
2018-07-24T18:24:45.479Z,2.40
2018-07-24T18:27:15.640Z,2.37
2018-07-24T18:29:48.143Z,2.47
2018-07-24T18:32:22.659Z,2.40
2018-07-24T18:34:52.118Z,2.50
2018-07-24T18:37:21.195Z,2.33
2018-07-24T18:39:50.241Z,2.30
2018-07-24T18:42:19.527Z,2.62
2018-07-24T18:44:48.813Z,2.45
2018-07-24T18:47:18.132Z,2.47
2018-07-24T18:49:47.533Z,2.65
2018-07-24T18:52:16.791Z,2.55
2018-07-24T18:54:46.524Z,2.70
2018-07-24T18:57:16.101Z,2.50
2018-07-24T18:59:45.440Z,3.08
2018-07-24T19:02:14.539Z,2.80
2018-07-24T19:04:43.815Z,2.75
2018-07-24T19:07:12.544Z,2.45
2018-07-24T19:09:42.929Z,2.27
2018-07-24T19:12:11.908Z,2.42
2018-07-24T19:14:41.991Z,2.52
2018-07-24T19:17:11.236Z,2.20
2018-07-24T19:19:43.861Z,2.33
2018-07-24T19:22:12.771Z,2.30
2018-07-24T19:24:43.256Z,2.62
2018-07-24T19:27:12.569Z,2.02
2018-07-24T19:29:41.817Z,2.25
2018-07-24T19:32:10.929Z,2.20
2018-07-24T19:34:39.809Z,2.10
2018-07-24T19:37:08.993Z,2.27
2018-07-24T19:39:37.936Z,1.95
2018-07-24T19:42:07.387Z,2.20
2018-07-24T19:44:37.117Z,2.27
2018-07-24T19:47:05.731Z,2.35
2018-07-24T19:49:34.954Z,2.12
2018-07-24T19:52:03.324Z,2.10
2018-07-24T19:54:32.624Z,2.10
2018-07-24T19:57:02.007Z,2.12
2018-07-24T19:59:30.593Z,2.98
2018-07-24T20:01:59.695Z,2.90
2018-07-24T20:04:29.084Z,2.20
2018-07-24T20:06:57.739Z,2.60
2018-07-24T20:09:27.092Z,2.25
2018-07-24T20:11:56.356Z,2.40
2018-07-24T20:14:24.815Z,2.50
2018-07-24T20:16:54.184Z,2.90
2018-07-24T20:19:22.977Z,2.67
2018-07-24T20:21:52.281Z,2.37
2018-07-24T20:24:21.928Z,2.17
2018-07-24T20:26:51.145Z,2.70
2018-07-24T20:29:20.116Z,2.47
2018-07-24T20:31:49.528Z,2.67
2018-07-24T20:34:19.004Z,2.52
2018-07-24T20:36:48.929Z,2.58
2018-07-24T20:39:17.896Z,2.55
2018-07-24T20:41:46.968Z,2.92
2018-07-24T20:44:16.328Z,2.35
2018-07-24T20:46:46.140Z,2.80
2018-07-24T20:49:15.991Z,2.40
2018-07-24T20:51:45.472Z,2.65
2018-07-24T20:54:14.675Z,2.60
2018-07-24T20:56:44.519Z,2.58
2018-07-24T20:59:13.891Z,2.58
2018-07-24T21:01:43.176Z,2.70
2018-07-24T21:04:12.421Z,2.45
2018-07-24T21:06:41.444Z,2.50
2018-07-24T21:09:11.011Z,2.47
2018-07-24T21:11:41.163Z,2.85
2018-07-24T21:14:11.589Z,2.60
2018-07-24T21:16:40.552Z,2.77
2018-07-24T21:19:08.995Z,2.77
2018-07-24T21:21:38.471Z,3.15
2018-07-24T21:24:07.960Z,3.12
2018-07-24T21:26:37.089Z,2.70
2018-07-24T21:29:07.125Z,2.85
2018-07-24T21:31:35.789Z,2.87
2018-07-24T21:34:06.389Z,3.25
2018-07-24T21:36:35.616Z,2.85
2018-07-24T21:39:06.560Z,3.40
2018-07-24T21:41:36.191Z,3.00
2018-07-24T21:44:04.952Z,2.98
2018-07-24T21:46:34.831Z,3.30
2018-07-24T21:49:03.935Z,2.98
2018-07-24T21:51:32.564Z,3.60
2018-07-24T21:54:01.730Z,3.15
2018-07-24T21:56:30.619Z,3.52
2018-07-24T21:58:59.992Z,3.05
2018-07-24T22:01:29.257Z,3.00
2018-07-24T22:03:58.877Z,2.95
2018-07-24T22:06:28.311Z,3.12
2018-07-24T22:08:57.654Z,3.33
2018-07-24T22:11:26.713Z,3.25
2018-07-24T22:13:55.697Z,3.80
2018-07-24T22:16:24.870Z,3.50
2018-07-24T22:18:53.684Z,3.45
2018-07-24T22:21:22.693Z,3.67
2018-07-24T22:23:51.599Z,3.62
2018-07-24T22:26:20.902Z,3.58
2018-07-24T22:28:50.604Z,3.15
2018-07-24T22:31:19.855Z,3.50
2018-07-24T22:33:49.527Z,3.70
2018-07-24T22:36:19.213Z,3.80
2018-07-24T22:38:48.157Z,3.42
2018-07-24T22:41:17.235Z,3.75
2018-07-24T22:43:46.580Z,3.72
2018-07-24T22:46:15.676Z,3.37
2018-07-24T22:48:44.632Z,4.00
2018-07-24T22:51:13.603Z,3.70
2018-07-24T22:53:42.634Z,3.80
2018-07-24T22:56:11.786Z,3.72
2018-07-24T22:58:41.891Z,4.15
2018-07-24T23:01:11.443Z,4.37
2018-07-24T23:03:40.359Z,3.33
2018-07-24T23:06:09.140Z,3.98
2018-07-24T23:08:38.612Z,4.08
2018-07-24T23:11:08.045Z,4.28
2018-07-24T23:13:36.869Z,4.20
2018-07-24T23:16:05.955Z,4.00
2018-07-24T23:18:34.905Z,4.05
2018-07-24T23:21:03.884Z,3.67
2018-07-24T23:23:32.892Z,4.00
2018-07-24T23:26:02.072Z,3.85
2018-07-24T23:28:31.278Z,3.60
2018-07-24T23:31:00.284Z,3.93
2018-07-24T23:33:29.663Z,3.80
2018-07-24T23:35:58.395Z,3.85
2018-07-24T23:38:28.527Z,3.83
2018-07-24T23:40:57.792Z,3.92
2018-07-24T23:43:27.175Z,4.05
2018-07-24T23:45:56.138Z,4.10
2018-07-24T23:48:29.513Z,3.87
2018-07-24T23:50:58.680Z,3.83
2018-07-24T23:53:28.579Z,3.85
2018-07-24T23:55:57.787Z,4.23
2018-07-24T23:58:27.207Z,3.95
